Time;durP1;ratioP1;P1;durP2;ratioP2;P2;SDS_P1;SDS_P2;PMS_P1;PMS_P2;Temp;Humidity;BMP_temperature;BMP_pressure;BME280_temperature;BME280_humidity;BME280_pressure;Samples;Min_cycle;Max_cycle;Signal;HPM_P1;HPM_P2
2024/01/22 00:00:40;;;;;;;31.00;11.30;;;;;;;;;;10113347;29;20032;-78
2024/01/22 00:05:41;;;;;;;27.47;12.23;;;;;;;;;;10117682;29;20041;-78
2024/01/22 00:10:42;;;;;;;42.20;17.87;;;;;;;;;;10106544;29;20139;-78
2024/01/22 00:15:44;;;;;;;24.93;9.33;;;;;;;;;;10111329;29;20116;-79
2024/01/22 00:20:45;;;;;;;31.30;12.27;;;;;;;;;;10120169;29;20115;-78
2024/01/22 00:25:46;;;;;;;34.47;15.97;;;;;;;;;;10116745;29;20028;-78
2024/01/22 00:30:47;;;;;;;32.00;13.00;;;;;;;;;;10114211;29;20041;-79
2024/01/22 00:35:48;;;;;;;40.30;17.60;;;;;;;;;;10122717;29;20037;-79
2024/01/22 00:40:49;;;;;;;32.90;13.73;;;;;;;;;;10120916;29;20073;-79
2024/01/22 00:45:51;;;;;;;35.63;16.20;;;;;;;;;;10117249;29;20553;-79
2024/01/22 00:50:59;;;;;;;32.50;14.47;;;;;;;;;;10122104;29;20104;-79
2024/01/22 00:56:00;;;;;;;31.90;13.00;;;;;;;;;;10121861;29;20127;-79
2024/01/22 01:01:01;;;;;;;26.70;12.20;;;;;;;;;;10120749;29;20588;-79
2024/01/22 01:06:09;;;;;;;20.50;9.47;;;;;;;;;;10123023;29;20064;-78
2024/01/22 01:11:10;;;;;;;22.80;10.37;;;;;;;;;;10105747;29;20047;-78
2024/01/22 01:16:11;;;;;;;25.77;10.53;;;;;;;;;;10110565;29;20089;-79
2024/01/22 01:21:13;;;;;;;23.13;10.73;;;;;;;;;;10123534;29;20040;-80
2024/01/22 01:26:14;;;;;;;25.00;11.43;;;;;;;;;;10112262;29;20097;-79
2024/01/22 01:31:15;;;;;;;27.03;10.90;;;;;;;;;;10121397;29;20589;-78
2024/01/22 01:36:16;;;;;;;23.83;10.50;;;;;;;;;;10113157;29;20060;-79
2024/01/22 01:41:17;;;;;;;23.07;9.90;;;;;;;;;;10120413;29;20450;-78
2024/01/22 01:46:18;;;;;;;20.83;8.93;;;;;;;;;;10119481;29;20131;-79
2024/01/22 01:51:19;;;;;;;21.70;9.63;;;;;;;;;;10105233;29;20095;-80
2024/01/22 01:56:21;;;;;;;23.53;9.87;;;;;;;;;;10107906;29;20140;-78
2024/01/22 02:01:22;;;;;;;24.00;10.10;;;;;;;;;;10117924;29;20100;-80
2024/01/22 02:06:23;;;;;;;20.90;9.43;;;;;;;;;;10104239;29;20064;-80
2024/01/22 02:11:24;;;;;;;19.53;8.57;;;;;;;;;;10118976;29;20049;-79
2024/01/22 02:16:25;;;;;;;19.83;8.30;;;;;;;;;;10090625;29;20039;-81
2024/01/22 02:21:26;;;;;;;18.47;7.07;;;;;;;;;;10120717;29;20558;-79
2024/01/22 02:26:27;;;;;;;14.50;6.83;;;;;;;;;;10105467;29;20032;-81
2024/01/22 02:31:28;;;;;;;13.53;6.40;;;;;;;;;;10113057;29;20045;-79
2024/01/22 02:36:29;;;;;;;14.47;6.50;;;;;;;;;;10116902;29;20045;-77
2024/01/22 02:41:30;;;;;;;14.17;5.27;;;;;;;;;;10106462;29;20065;-78
2024/01/22 02:46:32;;;;;;;10.47;5.30;;;;;;;;;;10118828;29;20277;-79
2024/01/22 02:51:33;;;;;;;11.83;5.03;;;;;;;;;;10114357;29;20128;-78
2024/01/22 02:56:34;;;;;;;12.23;5.37;;;;;;;;;;10097132;29;20127;-78
2024/01/22 03:01:35;;;;;;;13.10;5.03;;;;;;;;;;10120964;29;20119;-80
2024/01/22 03:06:38;;;;;;;13.83;5.50;;;;;;;;;;10128551;29;20127;-80
2024/01/22 03:11:39;;;;;;;12.50;5.57;;;;;;;;;;10114570;29;20037;-79
2024/01/22 03:16:40;;;;;;;10.83;5.23;;;;;;;;;;10124640;29;20038;-79
2024/01/22 03:21:41;;;;;;;12.07;5.37;;;;;;;;;;10114777;29;20122;-78
2024/01/22 03:26:42;;;;;;;12.67;5.60;;;;;;;;;;10124913;29;20115;-80
2024/01/22 03:31:43;;;;;;;17.93;6.70;;;;;;;;;;10109165;29;20045;-77
2024/01/22 03:36:44;;;;;;;13.03;5.47;;;;;;;;;;10125306;29;20507;-78
2024/01/22 03:41:45;;;;;;;13.00;6.23;;;;;;;;;;10118259;29;20063;-81
2024/01/22 03:46:46;;;;;;;14.13;6.07;;;;;;;;;;10113586;29;20549;-80
2024/01/22 03:51:47;;;;;;;14.97;6.03;;;;;;;;;;10117981;29;20437;-79
2024/01/22 03:56:48;;;;;;;11.87;5.87;;;;;;;;;;10098913;29;20119;-78
2024/01/22 04:01:49;;;;;;;16.70;6.33;;;;;;;;;;10107640;29;20830;-78
2024/01/22 04:06:50;;;;;;;15.47;7.07;;;;;;;;;;10114843;29;20112;-78
2024/01/22 04:11:51;;;;;;;28.40;12.83;;;;;;;;;;10110816;29;20545;-79
2024/01/22 04:16:52;;;;;;;24.10;9.20;;;;;;;;;;10106154;29;20041;-78
2024/01/22 04:21:53;;;;;;;14.57;6.60;;;;;;;;;;10102793;29;20036;-77
2024/01/22 04:26:54;;;;;;;20.60;7.57;;;;;;;;;;10114630;29;20103;-79
2024/01/22 04:31:55;;;;;;;16.30;8.17;;;;;;;;;;10119319;29;20091;-78
2024/01/22 04:36:56;;;;;;;22.37;9.40;;;;;;;;;;10115339;29;20123;-78
2024/01/22 04:41:57;;;;;;;27.27;11.53;;;;;;;;;;10123264;29;20159;-78
2024/01/22 04:46:59;;;;;;;26.37;11.17;;;;;;;;;;10102688;29;20032;-78
2024/01/22 04:52:00;;;;;;;29.10;12.53;;;;;;;;;;10122997;29;20683;-79
2024/01/22 04:57:01;;;;;;;45.83;20.10;;;;;;;;;;10118986;29;20036;-77
2024/01/22 05:02:02;;;;;;;39.40;15.83;;;;;;;;;;10122694;29;20121;-77
2024/01/22 05:07:03;;;;;;;41.37;17.83;;;;;;;;;;10117196;29;20557;-79
2024/01/22 05:12:04;;;;;;;58.17;24.63;;;;;;;;;;10108155;29;20036;-78
2024/01/22 05:17:05;;;;;;;47.07;18.30;;;;;;;;;;10092668;29;20124;-79
2024/01/22 05:22:06;;;;;;;31.23;13.10;;;;;;;;;;10109713;29;20505;-79
2024/01/22 05:27:09;;;;;;;27.33;10.40;;;;;;;;;;10120716;29;20134;-78
2024/01/22 05:32:10;;;;;;;23.33;8.80;;;;;;;;;;10121889;29;20124;-78
2024/01/22 05:37:11;;;;;;;20.17;8.60;;;;;;;;;;10118676;29;20060;-78
2024/01/22 05:42:12;;;;;;;24.73;8.80;;;;;;;;;;10115083;29;20147;-78
2024/01/22 05:47:14;;;;;;;23.07;8.33;;;;;;;;;;10122570;29;20475;-78
2024/01/22 05:52:15;;;;;;;14.87;7.17;;;;;;;;;;10122144;29;20045;-78
2024/01/22 05:57:22;;;;;;;22.80;7.97;;;;;;;;;;10120993;29;20057;-78
2024/01/22 06:02:23;;;;;;;18.60;8.03;;;;;;;;;;10121406;29;20033;-78
2024/01/22 06:07:24;;;;;;;16.70;7.97;;;;;;;;;;10115587;29;20494;-78
2024/01/22 06:12:26;;;;;;;23.37;8.77;;;;;;;;;;10120491;29;20457;-76
2024/01/22 06:17:32;;;;;;;22.33;9.83;;;;;;;;;;10121316;29;20051;-78
2024/01/22 06:22:34;;;;;;;;;;;;;;;;;;10112390;29;20029;-77
2024/01/22 06:27:35;;;;;;;19.33;7.40;;;;;;;;;;10116638;29;19919;-79
2024/01/22 06:32:37;;;;;;;25.90;7.83;;;;;;;;;;10105105;29;20037;-79
2024/01/22 06:37:38;;;;;;;22.30;8.60;;;;;;;;;;10127798;29;20541;-79
2024/01/22 06:42:39;;;;;;;20.80;8.50;;;;;;;;;;10118194;29;20148;-80
2024/01/22 06:47:40;;;;;;;18.97;7.33;;;;;;;;;;10121805;29;20043;-80
2024/01/22 06:52:47;;;;;;;21.77;6.57;;;;;;;;;;10131172;29;20028;-78
2024/01/22 06:57:48;;;;;;;15.23;6.70;;;;;;;;;;10120844;29;20144;-79
2024/01/22 07:02:58;;;;;;;15.40;6.03;;;;;;;;;;10130232;29;20473;-78
2024/01/22 07:07:59;;;;;;;15.27;6.73;;;;;;;;;;10120492;29;20040;-78
2024/01/22 07:13:00;;;;;;;15.13;6.40;;;;;;;;;;10109855;29;20389;-80
2024/01/22 07:18:02;;;;;;;20.17;8.27;;;;;;;;;;10127533;29;20040;-80
2024/01/22 07:23:03;;;;;;;23.33;9.10;;;;;;;;;;10115648;29;20586;-78
2024/01/22 07:28:11;;;;;;;27.90;11.03;;;;;;;;;;10123750;29;20600;-80
2024/01/22 07:33:12;;;;;;;19.27;8.30;;;;;;;;;;10124836;29;20067;-78
2024/01/22 07:38:13;;;;;;;17.23;7.93;;;;;;;;;;10128327;29;20079;-79
2024/01/22 07:43:14;;;;;;;20.00;8.10;;;;;;;;;;10131028;29;20167;-78
2024/01/22 07:48:15;;;;;;;21.83;9.40;;;;;;;;;;10126169;29;20039;-78
2024/01/22 07:53:16;;;;;;;22.93;9.87;;;;;;;;;;10135292;29;20044;-78
2024/01/22 07:58:17;;;;;;;27.03;9.67;;;;;;;;;;10129096;29;20025;-78
2024/01/22 08:03:18;;;;;;;21.97;9.47;;;;;;;;;;10119365;29;20036;-78
2024/01/22 08:08:19;;;;;;;23.70;9.17;;;;;;;;;;10118078;29;20492;-78
2024/01/22 08:13:21;;;;;;;17.37;7.37;;;;;;;;;;10119339;29;20048;-79
2024/01/22 08:18:22;;;;;;;16.20;6.87;;;;;;;;;;10115566;29;20422;-78
2024/01/22 08:23:23;;;;;;;20.40;8.10;;;;;;;;;;10124720;29;20036;-78
2024/01/22 08:28:24;;;;;;;20.77;7.33;;;;;;;;;;10125785;29;20032;-78
2024/01/22 08:33:25;;;;;;;20.63;8.33;;;;;;;;;;10125874;29;20048;-79
2024/01/22 08:38:26;;;;;;;38.53;19.90;;;;;;;;;;10125496;29;20126;-78
2024/01/22 08:43:27;;;;;;;27.33;12.10;;;;;;;;;;10125023;29;20056;-80
2024/01/22 08:48:30;;;;;;;22.03;9.33;;;;;;;;;;10125957;29;20690;-79
2024/01/22 08:53:31;;;;;;;20.97;10.00;;;;;;;;;;10123583;29;20047;-77
2024/01/22 08:58:32;;;;;;;21.77;8.07;;;;;;;;;;10125501;29;20432;-78
2024/01/22 09:03:33;;;;;;;23.30;9.20;;;;;;;;;;10124039;29;20036;-78
2024/01/22 09:08:34;;;;;;;22.70;8.77;;;;;;;;;;10124699;29;20036;-77
2024/01/22 09:13:37;;;;;;;17.93;8.17;;;;;;;;;;10124451;29;20040;-79
2024/01/22 09:18:39;;;;;;;46.93;24.30;;;;;;;;;;10121182;29;20360;-79
2024/01/22 09:23:40;;;;;;;28.27;12.50;;;;;;;;;;10115428;29;20028;-79
2024/01/22 09:28:41;;;;;;;18.97;8.00;;;;;;;;;;10123870;29;20029;-79
2024/01/22 09:33:42;;;;;;;22.27;8.53;;;;;;;;;;10123380;29;20634;-79
2024/01/22 09:38:43;;;;;;;18.80;9.20;;;;;;;;;;10123099;29;20035;-78
2024/01/22 09:43:44;;;;;;;14.90;6.83;;;;;;;;;;10117790;29;20065;-79
2024/01/22 09:48:49;;;;;;;16.50;6.50;;;;;;;;;;10123313;29;20493;-79
2024/01/22 09:53:51;;;;;;;16.55;7.38;;;;;;;;;;10122153;29;20393;-79
2024/01/22 09:59:01;;;;;;;22.13;10.37;;;;;;;;;;10122835;29;20060;-78
2024/01/22 10:04:04;;;;;;;28.97;11.43;;;;;;;;;;10121956;29;20112;-79
2024/01/22 10:09:05;;;;;;;26.07;11.00;;;;;;;;;;10121734;29;20033;-79
2024/01/22 10:14:06;;;;;;;23.83;10.40;;;;;;;;;;10122208;29;20071;-78
2024/01/22 10:19:09;;;;;;;23.93;12.07;;;;;;;;;;10122403;29;20500;-79
2024/01/22 10:24:10;;;;;;;19.70;9.33;;;;;;;;;;10122142;29;20035;-81
2024/01/22 10:29:14;;;;;;;25.00;11.50;;;;;;;;;;10121908;29;20037;-78
2024/01/22 10:34:16;;;;;;;25.57;10.87;;;;;;;;;;10121262;29;20083;-80
2024/01/22 10:39:17;;;;;;;28.10;11.83;;;;;;;;;;10120904;29;20063;-80
2024/01/22 10:44:24;;;;;;;24.50;9.43;;;;;;;;;;10121216;29;20068;-81
2024/01/22 10:49:25;;;;;;;24.70;10.20;;;;;;;;;;10121185;29;20060;-80
2024/01/22 10:54:30;;;;;;;20.40;9.57;;;;;;;;;;10104046;29;20449;-78
2024/01/22 10:59:36;;;;;;;29.10;11.37;;;;;;;;;;10121127;29;20036;-78
2024/01/22 11:04:44;;;;;;;26.27;11.43;;;;;;;;;;10121383;29;20062;-80
2024/01/22 11:09:46;;;;;;;18.83;8.60;;;;;;;;;;10121078;29;20033;-79
2024/01/22 11:14:47;;;;;;;22.53;11.03;;;;;;;;;;10123882;29;20047;-79
2024/01/22 11:19:48;;;;;;;24.73;11.53;;;;;;;;;;10112339;29;20445;-78
2024/01/22 11:25:02;;;;;;;32.60;14.67;;;;;;;;;;10103067;29;20036;-78
2024/01/22 11:30:22;;;;;;;39.80;15.97;;;;;;;;;;10110192;29;20036;-79
2024/01/22 11:35:38;;;;;;;41.37;15.70;;;;;;;;;;10118293;29;20063;-78
2024/01/22 11:40:54;;;;;;;26.93;12.37;;;;;;;;;;10124340;29;20127;-78
2024/01/22 11:46:00;;;;;;;24.25;11.52;;;;;;;;;;10125739;29;20044;-77
2024/01/22 11:51:04;;;;;;;27.55;12.95;;;;;;;;;;10121817;29;20041;-78
2024/01/22 11:56:05;;;;;;;32.87;14.40;;;;;;;;;;10108608;29;20044;-78
2024/01/22 12:01:09;;;;;;;25.20;13.00;;;;;;;;;;10119295;29;20040;-79
2024/01/22 12:06:10;;;;;;;33.60;13.23;;;;;;;;;;10127662;29;20037;-80
2024/01/22 12:11:15;;;;;;;22.17;9.80;;;;;;;;;;10126589;29;20378;-79
2024/01/22 12:16:17;;;;;;;19.03;9.13;;;;;;;;;;10126709;29;20044;-80
2024/01/22 12:21:20;;;;;;;19.97;9.60;;;;;;;;;;10125793;29;20496;-79
2024/01/22 12:26:23;;;;;;;22.17;10.70;;;;;;;;;;10126858;29;20568;-78
2024/01/22 12:31:24;;;;;;;20.33;9.27;;;;;;;;;;10124926;29;20041;-79
2024/01/22 12:36:26;;;;;;;19.13;9.23;;;;;;;;;;10125863;29;20595;-79
2024/01/22 12:41:27;;;;;;;16.17;7.40;;;;;;;;;;10120052;29;20052;-78
2024/01/22 12:46:31;;;;;;;19.47;8.47;;;;;;;;;;10124221;29;20597;-79
2024/01/22 12:51:32;;;;;;;15.47;7.53;;;;;;;;;;10120928;29;20044;-79
2024/01/22 12:56:33;;;;;;;18.10;7.40;;;;;;;;;;10122246;29;20052;-79
2024/01/22 13:01:34;;;;;;;20.53;8.17;;;;;;;;;;10122968;29;20074;-79
2024/01/22 13:06:35;;;;;;;18.90;7.67;;;;;;;;;;10122025;29;20552;-77
2024/01/22 13:11:36;;;;;;;36.27;12.57;;;;;;;;;;10123995;29;20630;-78
2024/01/22 13:16:37;;;;;;;38.93;14.33;;;;;;;;;;10117202;29;20054;-77
2024/01/22 13:21:38;;;;;;;25.30;10.20;;;;;;;;;;10118191;29;20047;-77
2024/01/22 13:26:39;;;;;;;46.73;14.87;;;;;;;;;;10117990;29;20045;-78
2024/01/22 13:31:40;;;;;;;33.40;12.73;;;;;;;;;;10117764;29;20037;-78
2024/01/22 13:36:41;;;;;;;23.80;8.70;;;;;;;;;;10117391;29;20025;-78
2024/01/22 13:41:43;;;;;;;15.93;7.10;;;;;;;;;;10116173;29;20069;-76
2024/01/22 13:46:44;;;;;;;21.47;8.73;;;;;;;;;;10125786;29;20040;-78
2024/01/22 13:51:45;;;;;;;39.67;14.90;;;;;;;;;;10130102;29;20055;-78
2024/01/22 13:56:46;;;;;;;44.03;16.80;;;;;;;;;;10113890;29;20027;-78
2024/01/22 14:01:55;;;;;;;31.30;12.67;;;;;;;;;;10124509;29;20091;-77
2024/01/22 14:07:03;;;;;;;24.70;10.10;;;;;;;;;;10104712;29;20666;-79
2024/01/22 14:12:04;;;;;;;25.13;11.03;;;;;;;;;;10118148;29;20552;-79
2024/01/22 14:17:06;;;;;;;28.93;10.93;;;;;;;;;;10102162;29;20036;-80
2024/01/22 14:22:08;;;;;;;39.70;14.60;;;;;;;;;;10121104;29;20174;-78
2024/01/22 14:27:09;;;;;;;33.10;13.27;;;;;;;;;;10119159;29;20048;-77
2024/01/22 14:32:11;;;;;;;28.03;11.63;;;;;;;;;;10124225;29;20066;-78
2024/01/22 14:37:12;;;;;;;24.20;11.63;;;;;;;;;;10143242;29;20036;-78
2024/01/22 14:42:13;;;;;;;29.43;12.20;;;;;;;;;;10115175;29;20204;-78
2024/01/22 14:47:14;;;;;;;33.97;13.27;;;;;;;;;;10103309;29;20084;-80
2024/01/22 14:52:15;;;;;;;24.37;12.10;;;;;;;;;;10105195;29;20119;-79
2024/01/22 14:57:16;;;;;;;25.27;11.90;;;;;;;;;;10103436;29;20044;-78
2024/01/22 15:02:18;;;;;;;29.90;13.00;;;;;;;;;;10110593;29;20036;-78
2024/01/22 15:07:19;;;;;;;33.27;12.17;;;;;;;;;;10131711;29;20123;-78
2024/01/22 15:12:20;;;;;;;25.17;11.10;;;;;;;;;;10156118;29;20457;-79
2024/01/22 15:17:21;;;;;;;26.13;10.30;;;;;;;;;;10107423;29;20040;-80
2024/01/22 15:22:23;;;;;;;22.03;8.47;;;;;;;;;;10106928;29;20044;-78
2024/01/22 15:27:24;;;;;;;19.67;8.70;;;;;;;;;;10129359;29;20216;-80
2024/01/22 15:32:26;;;;;;;18.03;8.13;;;;;;;;;;10109875;29;20702;-78
2024/01/22 15:37:27;;;;;;;25.57;12.13;;;;;;;;;;10138844;29;20037;-78
2024/01/22 15:42:35;;;;;;;86.30;33.90;;;;;;;;;;10117134;29;20052;-78
2024/01/22 15:47:36;;;;;;;77.93;33.13;;;;;;;;;;10100470;29;20028;-79
2024/01/22 15:52:37;;;;;;;56.17;23.90;;;;;;;;;;10115023;29;20493;-80
2024/01/22 15:57:38;;;;;;;30.90;12.43;;;;;;;;;;10111101;29;20037;-80
2024/01/22 16:02:40;;;;;;;23.50;10.13;;;;;;;;;;10116311;29;20076;-77
2024/01/22 16:07:41;;;;;;;34.63;14.37;;;;;;;;;;10102423;29;20037;-78
2024/01/22 16:12:42;;;;;;;27.37;11.57;;;;;;;;;;10123412;29;20084;-80
2024/01/22 16:17:43;;;;;;;24.77;10.03;;;;;;;;;;10116009;29;20040;-81
2024/01/22 16:22:44;;;;;;;26.40;12.50;;;;;;;;;;10124107;29;20044;-79
2024/01/22 16:27:48;;;;;;;25.53;10.10;;;;;;;;;;10113340;29;20041;-78
2024/01/22 16:32:49;;;;;;;23.03;10.83;;;;;;;;;;10115551;29;20089;-78
2024/01/22 16:37:50;;;;;;;31.00;13.17;;;;;;;;;;10119622;29;20557;-78
2024/01/22 16:42:51;;;;;;;37.17;14.77;;;;;;;;;;10105162;29;20068;-79
2024/01/22 16:47:53;;;;;;;31.57;12.67;;;;;;;;;;10121686;29;20096;-78
2024/01/22 16:52:54;;;;;;;28.20;11.87;;;;;;;;;;10116450;29;20135;-78
2024/01/22 16:57:55;;;;;;;24.13;11.13;;;;;;;;;;10113559;29;20059;-77
2024/01/22 17:02:56;;;;;;;24.40;10.17;;;;;;;;;;10106146;29;20043;-80
2024/01/22 17:07:57;;;;;;;29.83;12.77;;;;;;;;;;10129820;29;20029;-80
2024/01/22 17:12:58;;;;;;;25.87;11.47;;;;;;;;;;10120918;29;20085;-78
2024/01/22 17:17:59;;;;;;;24.90;10.40;;;;;;;;;;10108175;29;20044;-79
2024/01/22 17:23:00;;;;;;;33.30;12.63;;;;;;;;;;10095796;29;20731;-78
2024/01/22 17:28:01;;;;;;;25.77;11.40;;;;;;;;;;10110759;29;20029;-80
2024/01/22 17:33:02;;;;;;;22.20;9.83;;;;;;;;;;10115844;29;20048;-78
2024/01/22 17:38:09;;;;;;;19.20;8.87;;;;;;;;;;10115487;29;20036;-79
2024/01/22 17:43:10;;;;;;;22.90;8.70;;;;;;;;;;10122168;29;20542;-79
2024/01/22 17:48:11;;;;;;;21.90;10.40;;;;;;;;;;10122958;29;20033;-78
2024/01/22 17:53:12;;;;;;;28.30;11.70;;;;;;;;;;10117547;29;20130;-82
2024/01/22 17:58:13;;;;;;;31.57;13.23;;;;;;;;;;10105620;29;20123;-81
2024/01/22 18:03:14;;;;;;;96.90;32.97;;;;;;;;;;10119497;29;20699;-79
2024/01/22 18:08:15;;;;;;;35.07;13.37;;;;;;;;;;10118089;29;20045;-79
2024/01/22 18:13:17;;;;;;;34.80;14.77;;;;;;;;;;10120420;29;20044;-78
2024/01/22 18:18:18;;;;;;;62.87;21.53;;;;;;;;;;10111324;29;20044;-79
2024/01/22 18:23:19;;;;;;;31.47;12.13;;;;;;;;;;10118783;29;20100;-79
2024/01/22 18:28:20;;;;;;;38.23;15.37;;;;;;;;;;10115570;29;20044;-79
2024/01/22 18:33:21;;;;;;;30.40;12.93;;;;;;;;;;10120378;29;20048;-79
2024/01/22 18:38:22;;;;;;;32.23;14.43;;;;;;;;;;10121395;29;20083;-79
2024/01/22 18:43:23;;;;;;;53.17;22.90;;;;;;;;;;10087666;29;20152;-78
2024/01/22 18:48:24;;;;;;;33.83;14.57;;;;;;;;;;10076230;29;20029;-80
2024/01/22 18:53:25;;;;;;;27.03;12.57;;;;;;;;;;10075833;29;20044;-78
2024/01/22 18:58:29;;;;;;;43.87;18.70;;;;;;;;;;10078886;29;20047;-79
2024/01/22 19:03:30;;;;;;;31.60;14.10;;;;;;;;;;10069124;29;20139;-79
2024/01/22 19:08:31;;;;;;;35.47;15.17;;;;;;;;;;10082211;29;20064;-79
2024/01/22 19:13:33;;;;;;;40.53;17.43;;;;;;;;;;10081630;29;20041;-78
2024/01/22 19:18:34;;;;;;;28.50;13.80;;;;;;;;;;10079511;29;20056;-79
2024/01/22 19:23:35;;;;;;;32.83;13.50;;;;;;;;;;10069005;29;20041;-80
2024/01/22 19:28:36;;;;;;;36.07;14.23;;;;;;;;;;10081394;29;20536;-78
2024/01/22 19:33:37;;;;;;;54.50;21.53;;;;;;;;;;10079280;29;20044;-78
2024/01/22 19:38:38;;;;;;;35.13;14.73;;;;;;;;;;10085831;29;20462;-79
2024/01/22 19:43:39;;;;;;;36.93;15.97;;;;;;;;;;10088357;29;20521;-78
2024/01/22 19:48:40;;;;;;;105.90;39.13;;;;;;;;;;10081654;29;20044;-78
2024/01/22 19:53:41;;;;;;;85.67;32.73;;;;;;;;;;10088665;29;20055;-78
2024/01/22 19:58:49;;;;;;;30.60;13.63;;;;;;;;;;10088488;29;20089;-78
2024/01/22 20:03:57;;;;;;;27.90;12.40;;;;;;;;;;10087302;29;20073;-78
2024/01/22 20:08:58;;;;;;;47.57;21.33;;;;;;;;;;10086618;29;20043;-77
2024/01/22 20:13:59;;;;;;;28.10;12.80;;;;;;;;;;10069549;29;20047;-77
2024/01/22 20:19:00;;;;;;;27.17;12.23;;;;;;;;;;10081828;29;20782;-77
2024/01/22 20:24:01;;;;;;;29.53;14.90;;;;;;;;;;10087559;29;20036;-79
2024/01/22 20:29:03;;;;;;;24.23;10.50;;;;;;;;;;10086038;29;20458;-77
2024/01/22 20:34:04;;;;;;;24.03;10.87;;;;;;;;;;10076060;29;20105;-80
2024/01/22 20:39:05;;;;;;;19.77;9.03;;;;;;;;;;10085880;29;20485;-77
2024/01/22 20:44:06;;;;;;;26.37;12.20;;;;;;;;;;10113173;29;20064;-78
2024/01/22 20:49:07;;;;;;;25.40;11.70;;;;;;;;;;10114077;29;20393;-77
2024/01/22 20:54:08;;;;;;;23.87;11.90;;;;;;;;;;10118435;29;20052;-78
2024/01/22 20:59:09;;;;;;;25.50;12.10;;;;;;;;;;10119343;29;20405;-79
2024/01/22 21:04:10;;;;;;;23.67;11.47;;;;;;;;;;10116459;29;20116;-77
2024/01/22 21:09:12;;;;;;;24.13;11.97;;;;;;;;;;10124383;29;20489;-78
2024/01/22 21:14:14;;;;;;;25.17;12.37;;;;;;;;;;10125439;29;20036;-78
2024/01/22 21:19:15;;;;;;;27.83;12.97;;;;;;;;;;10120652;29;20036;-77
2024/01/22 21:24:16;;;;;;;29.37;14.03;;;;;;;;;;10122347;29;20037;-78
2024/01/22 21:29:18;;;;;;;34.40;14.97;;;;;;;;;;10125393;29;20037;-77
2024/01/22 21:34:19;;;;;;;35.00;15.00;;;;;;;;;;10121239;29;20052;-78
2024/01/22 21:39:20;;;;;;;34.03;14.40;;;;;;;;;;10123093;29;20092;-77
2024/01/22 21:44:21;;;;;;;26.27;12.60;;;;;;;;;;10123338;29;20143;-78
2024/01/22 21:49:22;;;;;;;34.33;15.93;;;;;;;;;;10114984;29;20067;-78
2024/01/22 21:54:23;;;;;;;37.30;17.00;;;;;;;;;;10103591;29;20092;-78
2024/01/22 21:59:24;;;;;;;32.73;15.53;;;;;;;;;;10122066;29;20108;-78
2024/01/22 22:04:25;;;;;;;35.47;17.27;;;;;;;;;;10116916;29;20045;-78
2024/01/22 22:09:26;;;;;;;29.80;14.80;;;;;;;;;;10122275;29;20584;-77
2024/01/22 22:14:28;;;;;;;30.77;15.80;;;;;;;;;;10118078;29;20051;-77
2024/01/22 22:19:29;;;;;;;32.33;15.90;;;;;;;;;;10117884;29;20519;-77
2024/01/22 22:24:30;;;;;;;34.90;16.60;;;;;;;;;;10120711;29;20028;-79
2024/01/22 22:29:31;;;;;;;33.10;14.97;;;;;;;;;;10121346;29;20041;-78
2024/01/22 22:34:32;;;;;;;30.17;14.43;;;;;;;;;;10109313;29;20051;-78
2024/01/22 22:39:34;;;;;;;35.70;16.50;;;;;;;;;;10121005;29;20036;-77
2024/01/22 22:44:35;;;;;;;34.10;16.30;;;;;;;;;;10112202;29;20060;-77
2024/01/22 22:49:36;;;;;;;34.13;17.50;;;;;;;;;;10108131;29;20077;-78
2024/01/22 22:54:37;;;;;;;36.10;18.70;;;;;;;;;;10120807;29;20147;-77
2024/01/22 22:59:38;;;;;;;36.83;16.47;;;;;;;;;;10120910;29;20389;-77
2024/01/22 23:04:39;;;;;;;40.33;21.13;;;;;;;;;;10118868;29;20045;-78
2024/01/22 23:09:40;;;;;;;38.93;19.93;;;;;;;;;;10112720;29;20036;-79
2024/01/22 23:14:41;;;;;;;35.93;18.70;;;;;;;;;;10123327;29;20063;-77
2024/01/22 23:19:44;;;;;;;45.37;22.63;;;;;;;;;;10129585;23;20068;-78
2024/01/22 23:24:45;;;;;;;45.40;21.70;;;;;;;;;;10126905;29;20043;-78
2024/01/22 23:29:46;;;;;;;44.77;22.83;;;;;;;;;;10128447;29;20040;-78
2024/01/22 23:34:47;;;;;;;46.93;23.73;;;;;;;;;;10121745;29;20043;-78
2024/01/22 23:39:48;;;;;;;44.53;23.73;;;;;;;;;;10119131;29;20045;-78
2024/01/22 23:44:52;;;;;;;45.33;23.10;;;;;;;;;;10126982;29;20044;-79
2024/01/22 23:49:53;;;;;;;47.20;22.10;;;;;;;;;;10122070;29;20071;-78
2024/01/22 23:54:55;;;;;;;41.60;20.60;;;;;;;;;;10123375;29;20091;-78
2024/01/22 23:59:57;;;;;;;39.50;19.17;;;;;;;;;;10127215;29;20057;-77
